Red Falls, New York
Current Conditions -  °F | °C
As of 12:51 AM on Friday 31 Oct 2014 (Local Time) from KALB Reporting Station
Clear Clear  
Wind Chill: 35°   Ceiling: Unl
Heat Index: 35°   Visibility: 10mi
Dew Point: 31°   Wind: 0mph
Humidity: 85%   Direction: NA
Pressure: 30.04"   Gusts: NA
Location:  42.2982°N, 74.3984°W
Report Text: KALB 310451Z 00000KT 10SM CLR 02/M01 A3004 RMK AO2 SLP173 T00171006 401330017
Loading
Personal Weather Stations






























Interactive Weather Map
Tropical Storm Tracking
New forecast layout! Learn more

10-Day Weather Forecast

Advertisements
Track Severe Weather on mobile